Time,TemperatureF,DewpointF,PressureIn,WindDirection,WindDirectionDegrees,WindSpeedMPH,WindSpeedGustMPH,Humidity,HourlyPrecipIn,Conditions,Clouds,dailyrainin,SoftwareType,DateUTC
2013-06-11 00:01:00,71.2,69.1,29.85,SSW,210,8.1,8.1,93,0.00,RA,OVC,0.00,WeatherDisplay:10.37,2013-06-11 04:01:00,
2013-06-11 00:02:00,71.2,69.1,29.85,SSW,210,8.1,8.1,93,0.00,RA,OVC,0.00,WeatherDisplay:10.37,2013-06-11 04:02:00,
2013-06-11 00:07:00,71.2,69.1,29.85,SSW,210,8.1,8.1,93,0.00,RA,OVC,0.00,WeatherDisplay:10.37,2013-06-11 04:07:00,
2013-06-11 00:12:00,71.2,69.1,29.85,SSW,210,8.1,8.1,93,0.00,FEW,OVC,0.00,WeatherDisplay:10.37,2013-06-11 04:12:00,
2013-06-11 00:17:00,71.2,69.1,29.85,South,180,8.1,8.1,93,0.00,OVC,,0.00,WeatherDisplay:10.37,2013-06-11 04:17:00,
2013-06-11 00:22:00,71.1,68.9,29.85,South,180,5.8,5.8,93,0.00,OVC,,0.00,WeatherDisplay:10.37,2013-06-11 04:22:00,
2013-06-11 00:27:00,71.2,69.1,29.85,South,180,5.8,5.8,93,0.00,OVC,,0.00,WeatherDisplay:10.37,2013-06-11 04:27:00,
2013-06-11 00:32:00,71.2,69.1,29.85,South,180,5.8,5.8,93,0.00,OVC,,0.00,WeatherDisplay:10.37,2013-06-11 04:32:00,
2013-06-11 00:37:00,71.1,68.9,29.85,South,180,5.8,5.8,93,0.00,OVC,,0.00,WeatherDisplay:10.37,2013-06-11 04:37:00,
2013-06-11 00:42:00,71.2,69.1,29.84,South,180,5.8,5.8,93,0.00,OVC,,0.00,WeatherDisplay:10.37,2013-06-11 04:42:00,
2013-06-11 00:47:00,71.1,68.9,29.84,South,180,5.8,5.8,93,0.00,OVC,,0.00,WeatherDisplay:10.37,2013-06-11 04:47:00,
2013-06-11 00:52:00,71.1,68.9,29.84,South,180,5.8,5.8,93,0.00,OVC,,0.00,WeatherDisplay:10.37,2013-06-11 04:52:00,
2013-06-11 00:57:00,71.2,69.1,29.84,South,180,5.8,5.8,93,0.00,OVC,,0.00,WeatherDisplay:10.37,2013-06-11 04:57:00,
2013-06-11 01:02:00,71.1,68.9,29.84,South,180,5.8,5.8,93,0.00,OVC,,0.00,WeatherDisplay:10.37,2013-06-11 05:02:00,
2013-06-11 01:07:00,71.2,69.1,29.84,South,180,5.8,5.8,93,0.00,OVC,,0.00,WeatherDisplay:10.37,2013-06-11 05:07:00,
2013-06-11 01:12:00,71.2,69.1,29.84,South,180,5.8,5.8,93,0.00,OVC,,0.00,WeatherDisplay:10.37,2013-06-11 05:12:00,
2013-06-11 01:17:00,71.2,69.4,29.84,SW,230,8.1,8.1,94,0.00,OVC,,0.00,WeatherDisplay:10.37,2013-06-11 05:17:00,
2013-06-11 01:22:00,71.2,69.4,29.84,SW,230,8.1,8.1,94,0.00,OVC,,0.00,WeatherDisplay:10.37,2013-06-11 05:22:00,
2013-06-11 01:27:00,71.2,69.1,29.84,SW,230,8.1,8.1,93,0.00,OVC,,0.00,WeatherDisplay:10.37,2013-06-11 05:27:00,
2013-06-11 01:32:00,71.2,69.1,29.84,SW,230,8.1,8.1,93,0.00,OVC,,0.00,WeatherDisplay:10.37,2013-06-11 05:32:00,
2013-06-11 01:37:00,71.2,69.1,29.84,SW,230,8.1,8.1,93,0.00,OVC,,0.00,WeatherDisplay:10.37,2013-06-11 05:37:00,
2013-06-11 01:42:00,71.4,69.3,29.84,SW,230,8.1,8.1,93,0.00,OVC,,0.00,WeatherDisplay:10.37,2013-06-11 05:42:00,
2013-06-11 01:47:00,71.2,69.1,29.84,SW,230,8.1,8.1,93,0.00,OVC,,0.00,WeatherDisplay:10.37,2013-06-11 05:47:00,
2013-06-11 01:52:00,71.2,69.4,29.84,SW,230,8.1,8.1,94,0.00,OVC,,0.00,WeatherDisplay:10.37,2013-06-11 05:52:00,
2013-06-11 01:57:00,71.2,69.1,29.84,SW,230,8.1,8.1,93,0.00,OVC,,0.00,WeatherDisplay:10.37,2013-06-11 05:57:00,
2013-06-11 02:02:00,71.4,69.3,29.84,SW,230,8.1,8.1,93,0.00,OVC,,0.00,WeatherDisplay:10.37,2013-06-11 06:02:00,
2013-06-11 02:07:00,71.4,69.3,29.84,SW,230,8.1,8.1,93,0.00,OVC,,0.00,WeatherDisplay:10.37,2013-06-11 06:07:00,
2013-06-11 02:12:00,71.4,69.3,29.84,SW,230,8.1,8.1,93,0.00,OVC,,0.00,WeatherDisplay:10.37,2013-06-11 06:12:00,
2013-06-11 02:17:00,71.4,69.3,29.84,SW,230,20.7,20.7,93,0.00,OVC,,0.00,WeatherDisplay:10.37,2013-06-11 06:17:00,
2013-06-11 02:22:00,71.4,69.3,29.84,SW,230,20.7,20.7,93,0.00,OVC,,0.00,WeatherDisplay:10.37,2013-06-11 06:22:00,
2013-06-11 02:27:00,71.4,69.3,29.84,SW,230,20.7,20.7,93,0.00,OVC,,0.00,WeatherDisplay:10.37,2013-06-11 06:27:00,
2013-06-11 02:32:00,71.4,69.3,29.84,SW,230,20.7,20.7,93,0.00,OVC,,0.00,WeatherDisplay:10.37,2013-06-11 06:32:00,
2013-06-11 02:37:00,71.4,69.3,29.84,SW,230,20.7,20.7,93,0.00,OVC,,0.00,WeatherDisplay:10.37,2013-06-11 06:37:00,
2013-06-11 02:42:00,71.4,69.3,29.83,SW,230,20.7,20.7,93,0.00,OVC,,0.00,WeatherDisplay:10.37,2013-06-11 06:42:00,
2013-06-11 02:47:00,71.4,69.6,29.83,WSW,240,20.7,20.7,94,0.00,BKN,OVC,0.00,WeatherDisplay:10.37,2013-06-11 06:47:00,
2013-06-11 02:52:00,71.4,69.3,29.83,WSW,240,11.5,11.5,93,0.00,BKN,OVC,0.00,WeatherDisplay:10.37,2013-06-11 06:52:00,
2013-06-11 02:57:00,71.4,69.6,29.83,WSW,240,11.5,11.5,94,0.00,BKN,OVC,0.00,WeatherDisplay:10.37,2013-06-11 06:57:00,
2013-06-11 03:02:00,71.4,69.6,29.83,WSW,240,11.5,11.5,94,0.00,BKN,OVC,0.00,WeatherDisplay:10.37,2013-06-11 07:02:00,
2013-06-11 03:07:00,71.6,69.5,29.83,WSW,240,11.5,11.5,93,0.00,BKN,OVC,0.00,WeatherDisplay:10.37,2013-06-11 07:07:00,
2013-06-11 03:13:00,71.4,69.6,29.83,WSW,240,11.5,11.5,94,0.00,BKN,OVC,0.00,WeatherDisplay:10.37,2013-06-11 07:13:00,
2013-06-11 03:18:00,71.8,69.6,29.82,SW,230,10.4,10.4,93,0.00,BKN,OVC,0.00,WeatherDisplay:10.37,2013-06-11 07:18:00,
2013-06-11 03:23:00,71.8,69.6,29.82,SW,230,10.4,10.4,93,0.00,BKN,OVC,0.00,WeatherDisplay:10.37,2013-06-11 07:23:00,
2013-06-11 03:28:00,71.8,69.6,29.83,SW,230,10.4,10.4,93,0.00,BKN,OVC,0.00,WeatherDisplay:10.37,2013-06-11 07:28:00,
2013-06-11 03:33:00,71.8,69.6,29.82,SW,230,10.4,10.4,93,0.00,BKN,OVC,0.00,WeatherDisplay:10.37,2013-06-11 07:33:00,
2013-06-11 03:38:00,71.8,69.6,29.82,SW,230,10.4,10.4,93,0.00,BKN,OVC,0.00,WeatherDisplay:10.37,2013-06-11 07:38:00,
2013-06-11 03:43:00,71.8,69.6,29.82,SW,230,10.4,10.4,93,0.00,BKN,OVC,0.00,WeatherDisplay:10.37,2013-06-11 07:43:00,
2013-06-11 03:48:00,71.8,69.6,29.82,SW,230,10.4,10.4,93,0.00,BKN,OVC,0.00,WeatherDisplay:10.37,2013-06-11 07:48:00,
2013-06-11 03:53:00,71.8,69.6,29.82,SW,230,10.4,10.4,93,0.00,BKN,OVC,0.00,WeatherDisplay:10.37,2013-06-11 07:53:00,
2013-06-11 03:58:00,71.8,69.6,29.82,SW,230,10.4,10.4,93,0.00,BKN,OVC,0.00,WeatherDisplay:10.37,2013-06-11 07:58:00,
2013-06-11 04:03:00,71.8,69.6,29.82,SW,230,10.4,10.4,93,0.00,BKN,OVC,0.00,WeatherDisplay:10.37,2013-06-11 08:03:00,
2013-06-11 04:08:00,71.8,70.0,29.82,SW,230,10.4,10.4,94,0.00,BKN,OVC,0.00,WeatherDisplay:10.37,2013-06-11 08:08:00,
2013-06-11 04:13:00,71.8,70.0,29.82,SW,230,10.4,10.4,94,0.00,BKN,OVC,0.00,WeatherDisplay:10.37,2013-06-11 08:13:00,
2013-06-11 04:18:00,71.8,69.6,29.82,WSW,240,12.7,12.7,93,0.00,OVC,,0.00,WeatherDisplay:10.37,2013-06-11 08:18:00,
2013-06-11 04:23:00,71.8,70.0,29.82,WSW,240,12.7,12.7,94,0.00,OVC,,0.00,WeatherDisplay:10.37,2013-06-11 08:23:00,
2013-06-11 04:28:00,71.8,70.0,29.82,WSW,240,12.7,12.7,94,0.00,OVC,,0.00,WeatherDisplay:10.37,2013-06-11 08:28:00,
2013-06-11 04:33:00,71.8,70.0,29.82,WSW,240,12.7,12.7,94,0.00,OVC,,0.00,WeatherDisplay:10.37,2013-06-11 08:33:00,
2013-06-11 04:38:00,71.8,70.0,29.82,WSW,240,12.7,12.7,94,0.00,OVC,,0.00,WeatherDisplay:10.37,2013-06-11 08:38:00,
2013-06-11 04:43:00,72.0,70.1,29.82,WSW,240,12.7,12.7,94,0.00,OVC,,0.00,WeatherDisplay:10.37,2013-06-11 08:43:00,
2013-06-11 04:48:00,72.0,70.1,29.82,WSW,240,12.7,12.7,94,0.00,OVC,,0.00,WeatherDisplay:10.37,2013-06-11 08:48:00,
2013-06-11 04:53:00,72.0,70.1,29.82,WSW,240,12.7,12.7,94,0.00,OVC,,0.00,WeatherDisplay:10.37,2013-06-11 08:53:00,
2013-06-11 04:58:00,72.0,70.1,29.82,WSW,240,12.7,12.7,94,0.00,OVC,,0.00,WeatherDisplay:10.37,2013-06-11 08:58:00,
2013-06-11 05:03:00,72.0,70.1,29.82,WSW,240,12.7,12.7,94,0.00,OVC,,0.00,WeatherDisplay:10.37,2013-06-11 09:03:00,
2013-06-11 05:08:00,72.0,70.1,29.83,WSW,240,12.7,12.7,94,0.00,OVC,,0.00,WeatherDisplay:10.37,2013-06-11 09:08:00,
2013-06-11 05:13:00,72.1,70.3,29.83,WSW,240,12.7,12.7,94,0.00,OVC,,0.00,WeatherDisplay:10.37,2013-06-11 09:13:00,
2013-06-11 05:18:00,72.1,70.3,29.83,WSW,240,12.7,12.7,94,0.00,OVC,,0.00,WeatherDisplay:10.37,2013-06-11 09:18:00,
2013-06-11 05:23:00,72.1,70.3,29.83,WSW,240,12.7,12.7,94,0.00,OVC,,0.00,WeatherDisplay:10.37,2013-06-11 09:23:00,
2013-06-11 05:28:00,72.1,70.3,29.83,WSW,240,12.7,12.7,94,0.00,OVC,,0.00,WeatherDisplay:10.37,2013-06-11 09:28:00,
2013-06-11 05:33:00,72.1,70.3,29.83,WSW,240,12.7,12.7,94,0.00,OVC,,0.00,WeatherDisplay:10.37,2013-06-11 09:33:00,
2013-06-11 05:38:00,72.1,70.0,29.83,WSW,240,12.7,12.7,93,0.00,OVC,,0.00,WeatherDisplay:10.37,2013-06-11 09:38:00,
2013-06-11 05:43:00,72.1,70.0,29.83,WSW,240,12.7,12.7,93,0.00,OVC,,0.00,WeatherDisplay:10.37,2013-06-11 09:43:00,
2013-06-11 05:48:00,72.1,70.3,29.83,WSW,240,12.7,12.7,94,0.00,OVC,,0.00,WeatherDisplay:10.37,2013-06-11 09:48:00,
2013-06-11 05:53:00,72.1,70.3,29.83,WSW,240,12.7,12.7,94,0.00,OVC,,0.00,WeatherDisplay:10.37,2013-06-11 09:53:00,
2013-06-11 05:58:00,72.1,70.3,29.83,WSW,240,12.7,12.7,94,0.00,OVC,,0.00,WeatherDisplay:10.37,2013-06-11 09:58:00,
2013-06-11 06:03:00,72.1,70.3,29.83,WSW,240,12.7,12.7,94,0.00,OVC,,0.00,WeatherDisplay:10.37,2013-06-11 10:03:00,
2013-06-11 06:08:00,72.0,70.1,29.83,WSW,240,12.7,12.7,94,0.00,OVC,,0.00,WeatherDisplay:10.37,2013-06-11 10:08:00,
2013-06-11 06:13:00,72.0,70.1,29.83,WSW,240,12.7,12.7,94,0.00,OVC,,0.00,WeatherDisplay:10.37,2013-06-11 10:13:00,
2013-06-11 06:18:00,72.0,70.1,29.85,WSW,250,20.7,20.7,94,0.02,RA,OVC,0.02,WeatherDisplay:10.37,2013-06-11 10:18:00,
2013-06-11 06:23:00,71.8,70.0,29.86,WSW,250,20.7,20.7,94,0.08,RA,OVC,0.08,WeatherDisplay:10.37,2013-06-11 10:23:00,
2013-06-11 06:28:00,71.8,70.0,29.85,WSW,250,20.7,20.7,94,0.18,RA,OVC,0.18,WeatherDisplay:10.37,2013-06-11 10:28:00,
2013-06-11 06:33:00,71.8,70.0,29.86,WSW,250,20.7,20.7,94,0.24,RA,OVC,0.24,WeatherDisplay:10.37,2013-06-11 10:33:00,
2013-06-11 06:38:00,71.8,70.3,29.85,WSW,250,20.7,20.7,95,0.24,RA,OVC,0.24,WeatherDisplay:10.37,2013-06-11 10:38:00,
2013-06-11 06:43:00,71.6,70.1,29.86,WSW,250,20.7,20.7,95,0.24,OVC,,0.24,WeatherDisplay:10.37,2013-06-11 10:43:00,
2013-06-11 06:48:00,71.4,69.9,29.86,West,270,24.2,24.2,95,0.24, +RA,OVC,0.24,WeatherDisplay:10.37,2013-06-11 10:48:00,
2013-06-11 06:53:00,71.4,69.9,29.85,West,270,24.2,24.2,95,0.24, +RA,OVC,0.24,WeatherDisplay:10.37,2013-06-11 10:53:00,
2013-06-11 06:58:00,71.4,69.9,29.86,West,270,24.2,24.2,95,0.24, +RA,OVC,0.24,WeatherDisplay:10.37,2013-06-11 10:58:00,
2013-06-11 07:03:00,71.4,69.9,29.86,West,270,24.2,24.2,95,0.24, +RA,OVC,0.24,WeatherDisplay:10.37,2013-06-11 11:03:00,
2013-06-11 07:08:00,71.4,69.9,29.86,West,270,24.2,24.2,95,0.24, +RA,OVC,0.24,WeatherDisplay:10.37,2013-06-11 11:08:00,
2013-06-11 07:13:00,71.4,69.9,29.86,West,270,24.2,24.2,95,0.24, +RA,OVC,0.24,WeatherDisplay:10.37,2013-06-11 11:13:00,
2013-06-11 07:18:00,71.4,69.9,29.86,WNW,290,13.8,13.8,95,0.22,-RA,OVC,0.24,WeatherDisplay:10.37,2013-06-11 11:18:00,
2013-06-11 07:23:00,71.4,69.9,29.86,WNW,290,13.8,13.8,95,0.16,-RA,OVC,0.24,WeatherDisplay:10.37,2013-06-11 11:23:00,
2013-06-11 07:28:00,71.4,69.9,29.86,WNW,290,13.8,13.8,95,0.06,-RA,OVC,0.24,WeatherDisplay:10.37,2013-06-11 11:28:00,
2013-06-11 07:33:00,71.4,70.2,29.87,WNW,290,13.8,13.8,96,0.00,-RA,OVC,0.24,WeatherDisplay:10.37,2013-06-11 11:33:00,
2013-06-11 07:38:00,71.4,70.2,29.87,WNW,290,13.8,13.8,96,0.00,-RA,OVC,0.24,WeatherDisplay:10.37,2013-06-11 11:38:00,
2013-06-11 07:43:00,71.4,70.2,29.87,WNW,290,13.8,13.8,96,0.00,-RA,OVC,0.24,WeatherDisplay:10.37,2013-06-11 11:43:00,
2013-06-11 07:48:00,71.4,70.2,29.87,WSW,250,6.9,6.9,96,0.00,BKN,OVC,0.24,WeatherDisplay:10.37,2013-06-11 11:48:00,
2013-06-11 07:53:00,71.4,70.2,29.87,WSW,250,6.9,6.9,96,0.00,BKN,OVC,0.24,WeatherDisplay:10.37,2013-06-11 11:53:00,
2013-06-11 07:58:00,71.6,70.4,29.87,WSW,250,6.9,6.9,96,0.00,BKN,OVC,0.24,WeatherDisplay:10.37,2013-06-11 11:58:00,
2013-06-11 08:03:00,71.6,70.4,29.88,WSW,250,6.9,6.9,96,0.00,BKN,OVC,0.24,WeatherDisplay:10.37,2013-06-11 12:03:00,
2013-06-11 08:08:00,71.8,70.6,29.88,WSW,250,6.9,6.9,96,0.00,BKN,OVC,0.24,WeatherDisplay:10.37,2013-06-11 12:08:00,
2013-06-11 08:13:00,71.8,70.6,29.88,WSW,250,6.9,6.9,96,0.00,BKN,OVC,0.24,WeatherDisplay:10.37,2013-06-11 12:13:00,
2013-06-11 08:18:00,71.8,70.6,29.88,WSW,250,8.1,8.1,96,0.00,OVC,,0.24,WeatherDisplay:10.37,2013-06-11 12:18:00,
2013-06-11 08:23:00,72.0,70.8,29.88,WSW,250,8.1,8.1,96,0.00,OVC,,0.24,WeatherDisplay:10.37,2013-06-11 12:23:00,
2013-06-11 08:28:00,72.1,70.9,29.88,WSW,250,8.1,8.1,96,0.00,OVC,,0.24,WeatherDisplay:10.37,2013-06-11 12:28:00,
2013-06-11 08:33:00,72.1,70.9,29.88,WSW,250,8.1,8.1,96,0.00,OVC,,0.24,WeatherDisplay:10.37,2013-06-11 12:33:00,
2013-06-11 08:38:00,72.3,71.1,29.88,WSW,250,8.1,8.1,96,0.00,OVC,,0.24,WeatherDisplay:10.37,2013-06-11 12:38:00,
2013-06-11 08:43:00,72.3,71.1,29.88,WSW,250,8.1,8.1,96,0.00,OVC,,0.24,WeatherDisplay:10.37,2013-06-11 12:43:00,
2013-06-11 08:48:00,72.3,71.1,29.88,WSW,250,8.1,8.1,96,0.00,OVC,,0.24,WeatherDisplay:10.37,2013-06-11 12:48:00,
2013-06-11 08:53:00,72.5,71.3,29.88,WSW,250,8.1,8.1,96,0.00,OVC,,0.24,WeatherDisplay:10.37,2013-06-11 12:53:00,
2013-06-11 08:58:00,72.7,71.5,29.88,WSW,250,8.1,8.1,96,0.00,OVC,,0.24,WeatherDisplay:10.37,2013-06-11 12:58:00,
2013-06-11 09:03:00,72.7,71.2,29.89,WSW,250,8.1,8.1,95,0.00,OVC,,0.24,WeatherDisplay:10.37,2013-06-11 13:03:00,
2013-06-11 09:08:00,73.0,71.5,29.88,WSW,250,8.1,8.1,95,0.00,OVC,,0.24,WeatherDisplay:10.37,2013-06-11 13:08:00,
2013-06-11 09:13:00,73.2,71.7,29.88,WSW,250,8.1,8.1,95,0.00,OVC,,0.24,WeatherDisplay:10.37,2013-06-11 13:13:00,
2013-06-11 09:18:00,73.2,71.7,29.89,West,260,6.9,6.9,95,0.00,BKN,OVC,0.24,WeatherDisplay:10.37,2013-06-11 13:18:00,
2013-06-11 09:23:00,73.4,71.9,29.89,West,260,6.9,6.9,95,0.00,BKN,OVC,0.24,WeatherDisplay:10.37,2013-06-11 13:23:00,
2013-06-11 09:28:00,73.6,72.1,29.89,West,260,6.9,6.9,95,0.00,BKN,OVC,0.24,WeatherDisplay:10.37,2013-06-11 13:28:00,
2013-06-11 09:33:00,73.8,72.2,29.90,West,260,6.9,6.9,95,0.00,BKN,OVC,0.24,WeatherDisplay:10.37,2013-06-11 13:33:00,
2013-06-11 09:38:00,74.1,72.6,29.89,West,260,6.9,6.9,95,0.00,BKN,OVC,0.24,WeatherDisplay:10.37,2013-06-11 13:38:00,
2013-06-11 09:43:00,74.5,72.6,29.89,West,260,6.9,6.9,94,0.00,BKN,OVC,0.24,WeatherDisplay:10.37,2013-06-11 13:43:00,
2013-06-11 09:48:00,74.5,72.6,29.89,West,260,6.9,6.9,94,0.00,BKN,OVC,0.24,WeatherDisplay:10.37,2013-06-11 13:48:00,
2013-06-11 09:53:00,74.8,73.0,29.89,West,260,6.9,6.9,94,0.00,BKN,OVC,0.24,WeatherDisplay:10.37,2013-06-11 13:53:00,
2013-06-11 09:58:00,75.0,73.2,29.89,West,260,6.9,6.9,94,0.00,BKN,OVC,0.24,WeatherDisplay:10.37,2013-06-11 13:58:00,
2013-06-11 10:03:00,75.0,72.9,29.89,West,260,6.9,6.9,93,0.00,BKN,OVC,0.24,WeatherDisplay:10.37,2013-06-11 14:03:00,
2013-06-11 10:08:00,75.4,73.2,29.90,West,260,6.9,6.9,93,0.00,BKN,OVC,0.24,WeatherDisplay:10.37,2013-06-11 14:08:00,
2013-06-11 10:13:00,75.4,73.2,29.90,West,260,6.9,6.9,93,0.00,BKN,OVC,0.24,WeatherDisplay:10.37,2013-06-11 14:13:00,
2013-06-11 10:18:00,75.4,73.2,29.90,West,260,23.0,23.0,93,0.00,BKN,OVC,0.24,WeatherDisplay:10.37,2013-06-11 14:18:00,
2013-06-11 10:23:00,75.7,72.9,29.89,West,260,23.0,23.0,91,0.00,BKN,OVC,0.24,WeatherDisplay:10.37,2013-06-11 14:23:00,
2013-06-11 10:28:00,75.9,73.1,29.89,West,260,23.0,23.0,91,0.00,BKN,OVC,0.24,WeatherDisplay:10.37,2013-06-11 14:28:00,
2013-06-11 10:33:00,76.1,73.3,29.89,West,260,23.0,23.0,91,0.00,BKN,OVC,0.24,WeatherDisplay:10.37,2013-06-11 14:33:00,
2013-06-11 10:38:00,76.3,73.1,29.89,West,260,23.0,23.0,90,0.00,BKN,OVC,0.24,WeatherDisplay:10.37,2013-06-11 14:38:00,
2013-06-11 10:43:00,76.6,73.5,29.89,West,260,23.0,23.0,90,0.00,BKN,OVC,0.24,WeatherDisplay:10.37,2013-06-11 14:43:00,
2013-06-11 10:48:00,76.8,73.3,29.89,WNW,290,26.5,26.5,89,0.00,SCT,OVC,0.24,WeatherDisplay:10.37,2013-06-11 14:48:00,
2013-06-11 10:53:00,77.2,73.7,29.89,WNW,290,26.5,26.5,89,0.00,SCT,OVC,0.24,WeatherDisplay:10.37,2013-06-11 14:53:00,
2013-06-11 10:58:00,77.5,74.0,29.89,WNW,290,26.5,26.5,89,0.00,SCT,OVC,0.24,WeatherDisplay:10.37,2013-06-11 14:58:00,
2013-06-11 11:03:00,77.7,74.2,29.89,WNW,290,26.5,26.5,89,0.00,SCT,OVC,0.24,WeatherDisplay:10.37,2013-06-11 15:03:00,
2013-06-11 11:08:00,77.7,73.9,29.89,WNW,290,26.5,26.5,88,0.00,SCT,OVC,0.24,WeatherDisplay:10.37,2013-06-11 15:08:00,
2013-06-11 11:13:00,78.1,74.2,29.89,WNW,290,26.5,26.5,88,0.00,SCT,OVC,0.24,WeatherDisplay:10.37,2013-06-11 15:13:00,
2013-06-11 11:18:00,78.4,74.6,29.89,West,280,10.4,10.4,88,0.00,SCT,OVC,0.24,WeatherDisplay:10.37,2013-06-11 15:18:00,
2013-06-11 11:23:00,78.6,74.8,29.89,West,280,10.4,10.4,88,0.00,SCT,OVC,0.24,WeatherDisplay:10.37,2013-06-11 15:23:00,
2013-06-11 11:28:00,79.0,75.1,29.89,West,280,10.4,10.4,88,0.00,SCT,OVC,0.24,WeatherDisplay:10.37,2013-06-11 15:28:00,
2013-06-11 11:33:00,79.3,75.1,29.89,West,280,10.4,10.4,87,0.00,SCT,OVC,0.24,WeatherDisplay:10.37,2013-06-11 15:33:00,
2013-06-11 11:38:00,79.7,75.1,29.88,West,280,10.4,10.4,86,0.00,SCT,OVC,0.24,WeatherDisplay:10.37,2013-06-11 15:38:00,
2013-06-11 11:43:00,79.9,75.0,29.89,West,280,10.4,10.4,85,0.00,SCT,OVC,0.24,WeatherDisplay:10.37,2013-06-11 15:43:00,
2013-06-11 11:48:00,80.2,75.0,29.89,West,280,10.4,10.4,84,0.00,SCT,OVC,0.24,WeatherDisplay:10.37,2013-06-11 15:48:00,
2013-06-11 11:53:00,80.2,74.6,29.89,West,280,10.4,10.4,83,0.00,SCT,OVC,0.24,WeatherDisplay:10.37,2013-06-11 15:53:00,
2013-06-11 11:58:00,80.4,74.8,29.89,West,280,10.4,10.4,83,0.00,SCT,OVC,0.24,WeatherDisplay:10.37,2013-06-11 15:58:00,
2013-06-11 12:03:00,80.4,74.1,29.88,West,280,10.4,10.4,81,0.00,SCT,OVC,0.24,WeatherDisplay:10.37,2013-06-11 16:03:00,
2013-06-11 12:08:00,80.4,74.4,29.88,West,280,10.4,10.4,82,0.00,SCT,OVC,0.24,WeatherDisplay:10.37,2013-06-11 16:08:00,
2013-06-11 12:13:00,80.8,74.4,29.89,West,280,10.4,10.4,81,0.00,SCT,OVC,0.24,WeatherDisplay:10.37,2013-06-11 16:13:00,
2013-06-11 12:18:00,80.8,74.4,29.89,West,280,27.6,27.6,81,0.00,CLR,OVC,0.24,WeatherDisplay:10.37,2013-06-11 16:18:00,
2013-06-11 12:23:00,81.1,74.8,29.88,West,280,27.6,27.6,81,0.00,CLR,OVC,0.24,WeatherDisplay:10.37,2013-06-11 16:23:00,
2013-06-11 12:28:00,81.3,74.9,29.88,West,280,27.6,27.6,81,0.00,CLR,OVC,0.24,WeatherDisplay:10.37,2013-06-11 16:28:00,
2013-06-11 12:33:00,81.7,74.9,29.87,West,280,27.6,27.6,80,0.00,CLR,OVC,0.24,WeatherDisplay:10.37,2013-06-11 16:33:00,
2013-06-11 12:38:00,82.0,75.3,29.87,West,280,27.6,27.6,80,0.00,CLR,OVC,0.24,WeatherDisplay:10.37,2013-06-11 16:38:00,
2013-06-11 12:43:00,82.0,74.5,29.88,West,280,27.6,27.6,78,0.00,CLR,OVC,0.24,WeatherDisplay:10.37,2013-06-11 16:43:00,
2013-06-11 12:48:00,82.0,74.9,29.88,West,280,27.6,27.6,79,0.00,CLR,OVC,0.24,WeatherDisplay:10.37,2013-06-11 16:48:00,
2013-06-11 12:53:00,82.0,75.3,29.87,West,280,27.6,27.6,80,0.00,CLR,OVC,0.24,WeatherDisplay:10.37,2013-06-11 16:53:00,
2013-06-11 12:58:00,82.4,76.0,29.87,West,280,27.6,27.6,81,0.00,CLR,OVC,0.24,WeatherDisplay:10.37,2013-06-11 16:58:00,
2013-06-11 13:03:00,82.8,76.0,29.88,West,280,27.6,27.6,80,0.00,CLR,OVC,0.24,WeatherDisplay:10.37,2013-06-11 17:03:00,
2013-06-11 13:08:00,83.1,75.9,29.88,West,280,27.6,27.6,79,0.00,CLR,OVC,0.24,WeatherDisplay:10.37,2013-06-11 17:08:00,
2013-06-11 13:13:00,83.5,75.9,29.88,West,280,27.6,27.6,78,0.00,CLR,OVC,0.24,WeatherDisplay:10.37,2013-06-11 17:13:00,
2013-06-11 13:18:00,83.5,75.1,29.88,West,260,10.4,10.4,76,0.00,FEW,OVC,0.24,WeatherDisplay:10.37,2013-06-11 17:18:00,
2013-06-11 13:23:00,83.5,74.7,29.87,West,260,10.4,10.4,75,0.00,FEW,OVC,0.24,WeatherDisplay:10.37,2013-06-11 17:23:00,
2013-06-11 13:28:00,83.8,75.1,29.86,West,260,10.4,10.4,75,0.00,FEW,OVC,0.24,WeatherDisplay:10.37,2013-06-11 17:28:00,
2013-06-11 13:33:00,84.4,76.0,29.86,West,260,10.4,10.4,76,0.00,FEW,OVC,0.24,WeatherDisplay:10.37,2013-06-11 17:33:00,
2013-06-11 13:38:00,84.7,75.9,29.86,West,260,10.4,10.4,75,0.00,FEW,OVC,0.24,WeatherDisplay:10.37,2013-06-11 17:38:00,
2013-06-11 13:43:00,84.9,76.1,29.86,West,260,10.4,10.4,75,0.00,FEW,OVC,0.24,WeatherDisplay:10.37,2013-06-11 17:43:00,
2013-06-11 13:48:00,84.9,75.7,29.86,West,260,10.4,10.4,74,0.00,FEW,OVC,0.24,WeatherDisplay:10.37,2013-06-11 17:48:00,
2013-06-11 13:53:00,85.1,75.9,29.85,West,260,10.4,10.4,74,0.00,FEW,OVC,0.24,WeatherDisplay:10.37,2013-06-11 17:53:00,
2013-06-11 13:58:00,85.6,76.0,29.86,West,260,10.4,10.4,73,0.00,FEW,OVC,0.24,WeatherDisplay:10.37,2013-06-11 17:58:00,
2013-06-11 14:03:00,85.6,76.0,29.86,West,260,10.4,10.4,73,0.00,FEW,OVC,0.24,WeatherDisplay:10.37,2013-06-11 18:03:00,
2013-06-11 14:08:00,85.8,76.2,29.86,West,260,10.4,10.4,73,0.00,FEW,OVC,0.24,WeatherDisplay:10.37,2013-06-11 18:08:00,
2013-06-11 14:13:00,86.0,75.9,29.86,West,260,10.4,10.4,72,0.00,FEW,OVC,0.24,WeatherDisplay:10.37,2013-06-11 18:13:00,
2013-06-11 14:18:00,85.8,75.7,29.86,West,280,10.4,10.4,72,0.00,SCT,OVC,0.24,WeatherDisplay:10.37,2013-06-11 18:18:00,
2013-06-11 14:23:00,85.6,75.6,29.86,West,280,10.4,10.4,72,0.00,SCT,OVC,0.24,WeatherDisplay:10.37,2013-06-11 18:23:00,
2013-06-11 14:28:00,85.8,74.9,29.86,West,280,10.4,10.4,70,0.00,SCT,OVC,0.24,WeatherDisplay:10.37,2013-06-11 18:28:00,
2013-06-11 14:33:00,85.8,74.9,29.85,West,280,10.4,10.4,70,0.00,SCT,OVC,0.24,WeatherDisplay:10.37,2013-06-11 18:33:00,
2013-06-11 14:38:00,85.6,75.2,29.85,West,280,10.4,10.4,71,0.00,SCT,OVC,0.24,WeatherDisplay:10.37,2013-06-11 18:38:00,
2013-06-11 14:43:00,85.8,74.9,29.84,West,280,10.4,10.4,70,0.00,SCT,OVC,0.24,WeatherDisplay:10.37,2013-06-11 18:43:00,
2013-06-11 14:48:00,86.4,75.0,29.84,West,280,10.4,10.4,69,0.00,SCT,OVC,0.24,WeatherDisplay:10.37,2013-06-11 18:48:00,
2013-06-11 14:53:00,86.2,74.8,29.84,West,280,10.4,10.4,69,0.00,SCT,OVC,0.24,WeatherDisplay:10.37,2013-06-11 18:53:00,
2013-06-11 14:58:00,86.2,74.8,29.84,West,280,10.4,10.4,69,0.00,SCT,OVC,0.24,WeatherDisplay:10.37,2013-06-11 18:58:00,
2013-06-11 15:03:00,86.2,73.9,29.84,West,280,10.4,10.4,67,0.00,SCT,OVC,0.24,WeatherDisplay:10.37,2013-06-11 19:03:00,
2013-06-11 15:08:00,86.7,74.9,29.85,West,280,10.4,10.4,68,0.00,SCT,OVC,0.24,WeatherDisplay:10.37,2013-06-11 19:08:00,
2013-06-11 15:13:00,87.1,75.2,29.85,West,280,10.4,10.4,68,0.00,SCT,OVC,0.24,WeatherDisplay:10.37,2013-06-11 19:13:00,
2013-06-11 15:18:00,87.1,74.3,29.85,WNW,300,23.0,23.0,66,0.00,FEW,OVC,0.24,WeatherDisplay:10.37,2013-06-11 19:18:00,
2013-06-11 15:23:00,87.1,74.3,29.85,WNW,300,23.0,23.0,66,0.00,FEW,OVC,0.24,WeatherDisplay:10.37,2013-06-11 19:23:00,
2013-06-11 15:28:00,87.4,74.7,29.85,WNW,300,23.0,23.0,66,0.00,FEW,OVC,0.24,WeatherDisplay:10.37,2013-06-11 19:28:00,
2013-06-11 15:33:00,87.6,74.9,29.85,WNW,300,23.0,23.0,66,0.00,FEW,OVC,0.24,WeatherDisplay:10.37,2013-06-11 19:33:00,
2013-06-11 15:38:00,87.6,74.9,29.85,WNW,300,23.0,23.0,66,0.00,FEW,OVC,0.24,WeatherDisplay:10.37,2013-06-11 19:38:00,
2013-06-11 15:43:00,87.6,74.4,29.84,WNW,300,23.0,23.0,65,0.00,FEW,OVC,0.24,WeatherDisplay:10.37,2013-06-11 19:43:00,
2013-06-11 15:48:00,87.6,73.9,29.84,WNW,300,23.0,23.0,64,0.00,FEW,OVC,0.24,WeatherDisplay:10.37,2013-06-11 19:48:00,
2013-06-11 15:53:00,87.6,73.5,29.84,WNW,300,23.0,23.0,63,0.00,FEW,OVC,0.24,WeatherDisplay:10.37,2013-06-11 19:53:00,
2013-06-11 15:58:00,87.8,73.2,29.84,WNW,300,23.0,23.0,62,0.00,FEW,OVC,0.24,WeatherDisplay:10.37,2013-06-11 19:58:00,
2013-06-11 16:03:00,87.8,73.6,29.83,WNW,300,23.0,23.0,63,0.00,FEW,OVC,0.24,WeatherDisplay:10.37,2013-06-11 20:03:00,
2013-06-11 16:08:00,88.0,73.3,29.83,WNW,300,23.0,23.0,62,0.00,FEW,OVC,0.24,WeatherDisplay:10.37,2013-06-11 20:08:00,
2013-06-11 16:13:00,88.0,72.8,29.84,WNW,300,23.0,23.0,61,0.00,FEW,OVC,0.24,WeatherDisplay:10.37,2013-06-11 20:13:00,
2013-06-11 16:18:00,88.0,73.8,29.84,West,280,10.4,10.4,63,0.00,FEW,OVC,0.24,WeatherDisplay:10.37,2013-06-11 20:18:00,
2013-06-11 16:23:00,87.8,73.2,29.84,West,280,10.4,10.4,62,0.00,FEW,OVC,0.24,WeatherDisplay:10.37,2013-06-11 20:23:00,
2013-06-11 16:28:00,87.6,73.5,29.83,West,280,10.4,10.4,63,0.00,FEW,OVC,0.24,WeatherDisplay:10.37,2013-06-11 20:28:00,
2013-06-11 16:33:00,87.6,73.0,29.83,West,280,10.4,10.4,62,0.00,FEW,OVC,0.24,WeatherDisplay:10.37,2013-06-11 20:33:00,
2013-06-11 16:38:00,87.6,73.0,29.84,West,280,10.4,10.4,62,0.00,FEW,OVC,0.24,WeatherDisplay:10.37,2013-06-11 20:38:00,
2013-06-11 16:43:00,87.6,73.5,29.84,West,280,10.4,10.4,63,0.00,FEW,OVC,0.24,WeatherDisplay:10.37,2013-06-11 20:43:00,
2013-06-11 16:48:00,87.8,73.6,29.84,West,280,10.4,10.4,63,0.00,FEW,OVC,0.24,WeatherDisplay:10.37,2013-06-11 20:48:00,
2013-06-11 16:53:00,87.6,73.0,29.83,West,280,10.4,10.4,62,0.00,FEW,OVC,0.24,WeatherDisplay:10.37,2013-06-11 20:53:00,
2013-06-11 16:58:00,87.6,73.5,29.83,West,280,10.4,10.4,63,0.00,FEW,OVC,0.24,WeatherDisplay:10.37,2013-06-11 20:58:00,
2013-06-11 17:03:00,87.6,73.9,29.83,West,280,10.4,10.4,64,0.00,FEW,OVC,0.24,WeatherDisplay:10.37,2013-06-11 21:03:00,
2013-06-11 17:08:00,87.6,74.4,29.84,West,280,10.4,10.4,65,0.00,FEW,OVC,0.24,WeatherDisplay:10.37,2013-06-11 21:08:00,
2013-06-11 17:13:00,87.4,74.2,29.84,West,280,10.4,10.4,65,0.00,FEW,OVC,0.24,WeatherDisplay:10.37,2013-06-11 21:13:00,
2013-06-11 17:18:00,87.3,74.1,29.83,West,280,24.2,24.2,65,0.00,CLR,OVC,0.24,WeatherDisplay:10.37,2013-06-11 21:18:00,
2013-06-11 17:23:00,87.4,73.8,29.83,West,280,24.2,24.2,64,0.00,CLR,OVC,0.24,WeatherDisplay:10.37,2013-06-11 21:23:00,
2013-06-11 17:28:00,87.3,73.6,29.83,West,280,24.2,24.2,64,0.00,CLR,OVC,0.24,WeatherDisplay:10.37,2013-06-11 21:28:00,
2013-06-11 17:33:00,87.3,73.1,29.83,West,280,24.2,24.2,63,0.00,CLR,OVC,0.24,WeatherDisplay:10.37,2013-06-11 21:33:00,
2013-06-11 17:38:00,87.1,73.4,29.83,West,280,24.2,24.2,64,0.00,CLR,OVC,0.24,WeatherDisplay:10.37,2013-06-11 21:38:00,
2013-06-11 17:43:00,86.9,73.3,29.83,West,280,24.2,24.2,64,0.00,CLR,OVC,0.24,WeatherDisplay:10.37,2013-06-11 21:43:00,
2013-06-11 17:48:00,86.5,73.4,29.83,West,280,24.2,24.2,65,0.00,CLR,OVC,0.24,WeatherDisplay:10.37,2013-06-11 21:48:00,
2013-06-11 17:53:00,86.4,73.2,29.83,West,280,24.2,24.2,65,0.00,CLR,OVC,0.24,WeatherDisplay:10.37,2013-06-11 21:53:00,
2013-06-11 17:58:00,86.2,73.5,29.83,West,280,24.2,24.2,66,0.00,CLR,OVC,0.24,WeatherDisplay:10.37,2013-06-11 21:58:00,
2013-06-11 18:03:00,85.8,73.6,29.82,West,280,24.2,24.2,67,0.00,CLR,OVC,0.24,WeatherDisplay:10.37,2013-06-11 22:03:00,
2013-06-11 18:08:00,85.6,73.4,29.82,West,280,24.2,24.2,67,0.00,CLR,OVC,0.24,WeatherDisplay:10.37,2013-06-11 22:08:00,
2013-06-11 18:13:00,85.3,73.1,29.83,West,280,24.2,24.2,67,0.00,CLR,OVC,0.24,WeatherDisplay:10.37,2013-06-11 22:13:00,
2013-06-11 18:18:00,85.1,73.3,29.82,WNW,290,10.4,10.4,68,0.00,CLR,OVC,0.24,WeatherDisplay:10.37,2013-06-11 22:18:00,
2013-06-11 18:23:00,84.7,72.6,29.81,WNW,290,10.4,10.4,67,0.00,CLR,OVC,0.24,WeatherDisplay:10.37,2013-06-11 22:23:00,
2013-06-11 18:28:00,84.6,72.4,29.82,WNW,290,10.4,10.4,67,0.00,CLR,OVC,0.24,WeatherDisplay:10.37,2013-06-11 22:28:00,
2013-06-11 18:33:00,84.4,72.2,29.82,WNW,290,10.4,10.4,67,0.00,CLR,OVC,0.24,WeatherDisplay:10.37,2013-06-11 22:33:00,
2013-06-11 18:38:00,84.0,71.9,29.82,WNW,290,10.4,10.4,67,0.00,CLR,OVC,0.24,WeatherDisplay:10.37,2013-06-11 22:38:00,
2013-06-11 18:43:00,84.0,72.3,29.82,WNW,290,10.4,10.4,68,0.00,CLR,OVC,0.24,WeatherDisplay:10.37,2013-06-11 22:43:00,
2013-06-11 18:48:00,83.8,72.6,29.82,WNW,290,10.4,10.4,69,0.00,CLR,OVC,0.24,WeatherDisplay:10.37,2013-06-11 22:48:00,
2013-06-11 18:53:00,83.5,72.2,29.82,WNW,290,10.4,10.4,69,0.00,CLR,OVC,0.24,WeatherDisplay:10.37,2013-06-11 22:53:00,
2013-06-11 18:58:00,83.3,72.1,29.82,WNW,290,10.4,10.4,69,0.00,CLR,OVC,0.24,WeatherDisplay:10.37,2013-06-11 22:58:00,
2013-06-11 19:03:00,83.1,72.7,29.82,WNW,290,10.4,10.4,71,0.00,CLR,OVC,0.24,WeatherDisplay:10.37,2013-06-11 23:03:00,
2013-06-11 19:08:00,82.8,72.4,29.82,WNW,290,10.4,10.4,71,0.00,CLR,OVC,0.24,WeatherDisplay:10.37,2013-06-11 23:08:00,
2013-06-11 19:13:00,82.8,72.4,29.82,WNW,290,10.4,10.4,71,0.00,CLR,OVC,0.24,WeatherDisplay:10.37,2013-06-11 23:13:00,
2013-06-11 19:18:00,82.6,72.6,29.83,WNW,300,8.1,8.1,72,0.00,CLR,OVC,0.24,WeatherDisplay:10.37,2013-06-11 23:18:00,
2013-06-11 19:23:00,82.2,72.3,29.82,WNW,300,8.1,8.1,72,0.00,CLR,OVC,0.24,WeatherDisplay:10.37,2013-06-11 23:23:00,
2013-06-11 19:28:00,82.0,72.5,29.83,WNW,300,8.1,8.1,73,0.00,CLR,OVC,0.24,WeatherDisplay:10.37,2013-06-11 23:28:00,
2013-06-11 19:33:00,81.7,72.6,29.83,WNW,300,8.1,8.1,74,0.00,CLR,OVC,0.24,WeatherDisplay:10.37,2013-06-11 23:33:00,
2013-06-11 19:38:00,81.5,72.4,29.82,WNW,300,8.1,8.1,74,0.00,CLR,OVC,0.24,WeatherDisplay:10.37,2013-06-11 23:38:00,
2013-06-11 19:43:00,81.3,72.6,29.82,WNW,300,8.1,8.1,75,0.00,CLR,OVC,0.24,WeatherDisplay:10.37,2013-06-11 23:43:00,
2013-06-11 19:48:00,81.1,72.9,29.83,WNW,300,8.1,8.1,76,0.00,CLR,OVC,0.24,WeatherDisplay:10.37,2013-06-11 23:48:00,
2013-06-11 19:53:00,81.0,72.7,29.82,WNW,300,8.1,8.1,76,0.00,CLR,OVC,0.24,WeatherDisplay:10.37,2013-06-11 23:53:00,
2013-06-11 19:58:00,80.6,72.7,29.83,WNW,300,8.1,8.1,77,0.00,CLR,OVC,0.24,WeatherDisplay:10.37,2013-06-11 23:58:00,
2013-06-11 20:03:00,80.4,72.9,29.83,WNW,300,8.1,8.1,78,0.00,CLR,OVC,0.24,WeatherDisplay:10.37,2013-06-12 00:03:00,
2013-06-11 20:08:00,80.2,72.8,29.83,WNW,300,8.1,8.1,78,0.00,CLR,OVC,0.24,WeatherDisplay:10.37,2013-06-12 00:08:00,
2013-06-11 20:13:00,79.9,72.4,29.83,WNW,300,8.1,8.1,78,0.00,CLR,OVC,0.24,WeatherDisplay:10.37,2013-06-12 00:13:00,
2013-06-11 20:18:00,79.7,72.6,29.83,WNW,290,6.9,6.9,79,0.00,CLR,OVC,0.24,WeatherDisplay:10.37,2013-06-12 00:18:00,
2013-06-11 20:23:00,79.5,72.4,29.83,WNW,290,6.9,6.9,79,0.00,CLR,OVC,0.24,WeatherDisplay:10.37,2013-06-12 00:23:00,
2013-06-11 20:28:00,79.3,72.3,29.83,WNW,290,6.9,6.9,79,0.00,CLR,OVC,0.24,WeatherDisplay:10.37,2013-06-12 00:28:00,
2013-06-11 20:33:00,79.0,72.3,29.83,WNW,290,6.9,6.9,80,0.00,CLR,OVC,0.24,WeatherDisplay:10.37,2013-06-12 00:33:00,
2013-06-11 20:38:00,78.6,71.9,29.83,WNW,290,6.9,6.9,80,0.00,CLR,OVC,0.24,WeatherDisplay:10.37,2013-06-12 00:38:00,
2013-06-11 20:43:00,78.6,71.9,29.83,WNW,290,6.9,6.9,80,0.00,CLR,OVC,0.24,WeatherDisplay:10.37,2013-06-12 00:43:00,
2013-06-11 20:48:00,78.4,72.1,29.83,WNW,290,6.9,6.9,81,0.00,CLR,OVC,0.24,WeatherDisplay:10.37,2013-06-12 00:48:00,
2013-06-11 20:53:00,78.1,71.8,29.83,WNW,290,6.9,6.9,81,0.00,CLR,OVC,0.24,WeatherDisplay:10.37,2013-06-12 00:53:00,
2013-06-11 20:58:00,77.9,71.6,29.83,WNW,290,6.9,6.9,81,0.00,CLR,OVC,0.24,WeatherDisplay:10.37,2013-06-12 00:58:00,
2013-06-11 21:03:00,77.7,71.4,29.83,WNW,290,6.9,6.9,81,0.00,CLR,OVC,0.24,WeatherDisplay:10.37,2013-06-12 01:03:00,
2013-06-11 21:08:00,77.5,71.6,29.83,WNW,290,6.9,6.9,82,0.00,CLR,OVC,0.24,WeatherDisplay:10.37,2013-06-12 01:08:00,
2013-06-11 21:13:00,77.2,71.3,29.84,WNW,290,6.9,6.9,82,0.00,CLR,OVC,0.24,WeatherDisplay:10.37,2013-06-12 01:13:00,
2013-06-11 21:18:00,77.2,71.6,29.84,WNW,290,0.0,0.0,83,0.00,CLR,OVC,0.24,WeatherDisplay:10.37,2013-06-12 01:18:00,
2013-06-11 21:23:00,76.8,70.9,29.84,WNW,290,0.0,0.0,82,0.00,CLR,OVC,0.24,WeatherDisplay:10.37,2013-06-12 01:23:00,
2013-06-11 21:28:00,76.6,71.1,29.84,WNW,290,0.0,0.0,83,0.00,CLR,OVC,0.24,WeatherDisplay:10.37,2013-06-12 01:28:00,
2013-06-11 21:33:00,76.3,70.7,29.84,WNW,290,0.0,0.0,83,0.00,CLR,OVC,0.24,WeatherDisplay:10.37,2013-06-12 01:33:00,
2013-06-11 21:38:00,76.3,71.1,29.84,WNW,290,0.0,0.0,84,0.00,CLR,OVC,0.24,WeatherDisplay:10.37,2013-06-12 01:38:00,
2013-06-11 21:43:00,76.1,70.9,29.85,WNW,290,0.0,0.0,84,0.00,CLR,OVC,0.24,WeatherDisplay:10.37,2013-06-12 01:43:00,
2013-06-11 21:48:00,75.9,70.7,29.85,WNW,290,0.0,0.0,84,0.00,CLR,OVC,0.24,WeatherDisplay:10.37,2013-06-12 01:48:00,
2013-06-11 21:53:00,75.7,70.6,29.85,WNW,290,0.0,0.0,84,0.00,CLR,OVC,0.24,WeatherDisplay:10.37,2013-06-12 01:53:00,
2013-06-11 21:58:00,75.7,70.6,29.86,WNW,290,0.0,0.0,84,0.00,CLR,OVC,0.24,WeatherDisplay:10.37,2013-06-12 01:58:00,
2013-06-11 22:03:00,75.6,70.4,29.86,WNW,290,0.0,0.0,84,0.00,CLR,OVC,0.24,WeatherDisplay:10.37,2013-06-12 02:03:00,
2013-06-11 22:08:00,75.4,70.2,29.86,WNW,290,0.0,0.0,84,0.00,CLR,OVC,0.24,WeatherDisplay:10.37,2013-06-12 02:08:00,
2013-06-11 22:13:00,75.2,70.4,29.86,WNW,290,0.0,0.0,85,0.00,CLR,OVC,0.24,WeatherDisplay:10.37,2013-06-12 02:13:00,
2013-06-11 22:18:00,75.0,70.2,29.86,West,270,3.5,3.5,85,0.00,CLR,OVC,0.24,WeatherDisplay:10.37,2013-06-12 02:18:00,
2013-06-11 22:23:00,75.0,70.2,29.86,West,270,3.5,3.5,85,0.00,CLR,OVC,0.24,WeatherDisplay:10.37,2013-06-12 02:23:00,
2013-06-11 22:28:00,74.8,70.0,29.87,West,270,3.5,3.5,85,0.00,CLR,OVC,0.24,WeatherDisplay:10.37,2013-06-12 02:28:00,
2013-06-11 22:33:00,74.8,70.0,29.87,West,270,3.5,3.5,85,0.00,CLR,OVC,0.24,WeatherDisplay:10.37,2013-06-12 02:33:00,
2013-06-11 22:38:00,74.8,70.0,29.87,West,270,3.5,3.5,85,0.00,CLR,OVC,0.24,WeatherDisplay:10.37,2013-06-12 02:38:00,
2013-06-11 22:43:00,74.8,70.0,29.86,West,270,3.5,3.5,85,0.00,CLR,OVC,0.24,WeatherDisplay:10.37,2013-06-12 02:43:00,
2013-06-11 22:48:00,74.8,70.0,29.87,West,270,3.5,3.5,85,0.00,CLR,OVC,0.24,WeatherDisplay:10.37,2013-06-12 02:48:00,
2013-06-11 22:53:00,74.8,70.4,29.87,West,270,3.5,3.5,86,0.00,CLR,OVC,0.24,WeatherDisplay:10.37,2013-06-12 02:53:00,
2013-06-11 22:58:00,74.1,69.7,29.87,West,270,3.5,3.5,86,0.00,CLR,OVC,0.24,WeatherDisplay:10.37,2013-06-12 02:58:00,
2013-06-11 23:03:00,74.1,70.0,29.87,West,270,3.5,3.5,87,0.00,CLR,OVC,0.24,WeatherDisplay:10.37,2013-06-12 03:03:00,
2013-06-11 23:08:00,74.1,70.0,29.88,West,270,3.5,3.5,87,0.00,CLR,OVC,0.24,WeatherDisplay:10.37,2013-06-12 03:08:00,
2013-06-11 23:13:00,74.1,70.0,29.88,West,270,3.5,3.5,87,0.00,CLR,OVC,0.24,WeatherDisplay:10.37,2013-06-12 03:13:00,
2013-06-11 23:18:00,73.8,69.6,29.88,WNW,290,5.8,5.8,87,0.00,CLR,OVC,0.24,WeatherDisplay:10.37,2013-06-12 03:18:00,
2013-06-11 23:23:00,73.6,69.5,29.88,WNW,290,5.8,5.8,87,0.00,CLR,OVC,0.24,WeatherDisplay:10.37,2013-06-12 03:23:00,
2013-06-11 23:28:00,73.6,69.5,29.88,WNW,290,5.8,5.8,87,0.00,CLR,OVC,0.24,WeatherDisplay:10.37,2013-06-12 03:28:00,
2013-06-11 23:33:00,73.2,69.1,29.88,WNW,290,5.8,5.8,87,0.00,CLR,OVC,0.24,WeatherDisplay:10.37,2013-06-12 03:33:00,
2013-06-11 23:38:00,73.2,69.5,29.88,WNW,290,5.8,5.8,88,0.00,CLR,OVC,0.24,WeatherDisplay:10.37,2013-06-12 03:38:00,
2013-06-11 23:43:00,73.2,69.5,29.88,WNW,290,5.8,5.8,88,0.00,CLR,OVC,0.24,WeatherDisplay:10.37,2013-06-12 03:43:00,
2013-06-11 23:48:00,73.0,69.3,29.88,WNW,290,5.8,5.8,88,0.00,CLR,OVC,0.24,WeatherDisplay:10.37,2013-06-12 03:48:00,
2013-06-11 23:53:00,73.0,69.3,29.88,WNW,290,5.8,5.8,88,0.00,CLR,OVC,0.24,WeatherDisplay:10.37,2013-06-12 03:53:00,
2013-06-11 23:58:00,72.9,69.1,29.88,WNW,290,5.8,5.8,88,0.00,CLR,OVC,0.24,WeatherDisplay:10.37,2013-06-12 03:58:00,